Terminal Aerodrome Forecast
Issued by NWS

Home | Current Version | Previous Version | Text Only | Print | Product List | Glossary On
Versions: 1 2 3 4 5 6 7 8 9 10 11 12 13 14
367
FTUS46 KSGX 291129
TAFONT
TAF
KONT 291129Z 2912/3018 VRB04KT P6SM SCT025
     FM292000 25010KT P6SM SCT030
     FM300400 VRB04KT P6SM SCT025
     FM300900 VRB04KT P6SM BKN025
     FM301600 VRB03KT P6SM SCT028=

USA.gov is the U.S. government's official web portal to all federal, state and local government web resources and services.